createdAt,value
2018-08-11T00:00:31.394Z,149056.66
2018-08-11T00:03:01.141Z,149062.88
2018-08-11T00:05:30.938Z,149076.59
2018-08-11T00:08:00.949Z,149080.33
2018-08-11T00:10:30.709Z,149049.12
2018-08-11T00:14:29.399Z,149050.38
2018-08-11T00:16:59.392Z,149051.63
2018-08-11T00:19:29.162Z,149044.14
2018-08-11T00:21:58.923Z,149029.19
2018-08-11T00:24:28.816Z,148994.25
2018-08-11T00:26:58.673Z,148984.28
2018-08-11T00:29:28.456Z,148986.78
2018-08-11T00:32:01.692Z,148994.25
2018-08-11T00:34:31.786Z,148981.80
2018-08-11T00:37:03.346Z,148981.80
2018-08-11T00:39:33.124Z,148955.59
2018-08-11T00:42:03.031Z,148951.84
2018-08-11T00:44:32.879Z,148923.19
2018-08-11T00:47:03.027Z,148931.91
2018-08-11T00:49:32.823Z,148931.91
2018-08-11T00:52:02.832Z,148939.39
2018-08-11T00:54:34.170Z,148936.89
2018-08-11T00:57:04.223Z,148984.28
2018-08-11T00:59:33.992Z,148994.25
2018-08-11T01:02:04.000Z,149009.25
2018-08-11T01:04:33.844Z,148996.75
2018-08-11T01:07:03.563Z,148989.27
2018-08-11T01:09:33.425Z,148956.83
2018-08-11T01:12:03.220Z,148941.88
2018-08-11T01:17:03.283Z,148943.13
2018-08-11T01:19:33.986Z,148916.92
2018-08-11T01:22:03.951Z,148933.16
2018-08-11T01:24:33.741Z,148926.94
2018-08-11T01:27:04.515Z,148916.92
2018-08-11T01:29:35.284Z,148920.66
2018-08-11T01:32:07.005Z,148896.94
2018-08-11T01:34:38.086Z,148889.47
2018-08-11T01:37:09.261Z,148900.67
2018-08-11T01:39:39.077Z,148894.44
2018-08-11T01:42:08.876Z,148889.47
2018-08-11T01:44:42.114Z,148882.00
2018-08-11T01:47:13.030Z,148884.48
2018-08-11T01:49:43.804Z,148874.52
2018-08-11T01:52:13.906Z,148879.50
2018-08-11T01:54:44.221Z,148901.92
2018-08-11T01:57:13.983Z,148895.69
2018-08-11T01:59:43.825Z,148891.95
2018-08-11T02:02:13.725Z,148880.75
2018-08-11T02:04:43.519Z,148884.48
2018-08-11T02:07:13.392Z,148900.67
2018-08-11T02:09:43.243Z,148906.91
2018-08-11T02:12:13.131Z,148893.20
2018-08-11T02:14:42.947Z,148894.44
2018-08-11T02:17:15.666Z,148893.20
2018-08-11T02:19:48.217Z,148885.73
2018-08-11T02:22:18.071Z,148884.48
2018-08-11T02:24:48.094Z,148868.28
2018-08-11T02:27:28.801Z,148852.06
2018-08-11T02:29:58.567Z,148832.12
2018-08-11T02:32:28.342Z,148832.12
2018-08-11T02:34:58.266Z,148829.63
2018-08-11T02:37:28.199Z,148797.22
2018-08-11T02:39:58.021Z,148804.69
2018-08-11T02:42:27.781Z,148798.45
2018-08-11T02:45:01.435Z,148797.22
2018-08-11T02:47:32.454Z,148807.17
2018-08-11T02:50:03.257Z,148769.77
2018-08-11T02:52:33.089Z,148794.72
2018-08-11T02:55:02.810Z,148792.23
2018-08-11T02:57:33.028Z,148789.73
2018-08-11T03:00:02.937Z,148798.45
2018-08-11T03:02:32.735Z,148789.73
2018-08-11T03:05:02.634Z,148789.73
2018-08-11T03:07:34.631Z,148797.22
2018-08-11T03:10:04.559Z,148787.25
2018-08-11T03:12:34.382Z,148794.72
2018-08-11T03:15:04.122Z,148798.45
2018-08-11T03:17:34.537Z,148782.27
2018-08-11T03:20:04.538Z,148761.05
2018-08-11T03:22:35.221Z,148764.78
2018-08-11T03:25:05.687Z,148776.05
2018-08-11T03:27:35.712Z,148774.80
2018-08-11T03:30:05.842Z,148778.53
2018-08-11T03:32:37.760Z,148779.78
2018-08-11T03:35:07.953Z,148783.52
2018-08-11T03:37:40.606Z,148798.45
2018-08-11T03:40:12.240Z,148807.17
2018-08-11T03:42:42.661Z,148784.75
2018-08-11T03:45:16.981Z,148800.94
2018-08-11T03:47:46.855Z,148817.13
2018-08-11T03:50:17.709Z,148837.11
2018-08-11T03:52:49.474Z,148847.06
2018-08-11T03:55:19.561Z,148879.50
2018-08-11T03:57:49.577Z,148990.52
2018-08-11T04:00:19.231Z,149005.47
2018-08-11T04:02:49.058Z,149009.25
2018-08-11T04:05:19.165Z,149268.81
2018-08-11T04:07:49.125Z,149536.13
2018-08-11T04:10:18.850Z,149711.05
2018-08-11T04:12:50.027Z,149942.36
2018-08-11T04:15:20.044Z,149988.64
2018-08-11T04:17:50.318Z,150146.31
2018-08-11T04:20:20.351Z,150083.73
2018-08-11T04:22:50.679Z,150143.78
2018-08-11T04:25:20.618Z,150088.73
2018-08-11T04:27:50.435Z,149788.56
2018-08-11T04:30:20.559Z,149793.55
2018-08-11T04:32:50.663Z,149923.62
2018-08-11T04:35:21.727Z,150130.03
2018-08-11T04:37:53.079Z,150469.30
2018-08-11T04:40:23.361Z,150476.80
2018-08-11T04:42:53.458Z,150439.28
2018-08-11T04:45:24.632Z,150158.81
2018-08-11T04:48:03.338Z,150255.22
2018-08-11T04:50:33.873Z,150053.75
2018-08-11T04:53:04.593Z,150272.72
2018-08-11T04:55:34.373Z,150511.92
2018-08-11T04:58:04.162Z,150684.84
2018-08-11T05:00:34.909Z,150835.25
2018-08-11T05:03:04.957Z,150831.50
2018-08-11T05:05:34.655Z,150916.73
2018-08-11T05:08:04.283Z,151049.69
2018-08-11T05:10:34.003Z,150807.66
2018-08-11T05:13:03.685Z,150899.16
2018-08-11T05:15:33.555Z,151015.81
2018-08-11T05:18:03.366Z,151166.34
2018-08-11T05:20:34.160Z,151058.45
2018-08-11T05:23:06.551Z,151117.44
2018-08-11T05:25:36.231Z,151022.08
2018-08-11T05:28:06.106Z,151245.44
2018-08-11T05:30:36.133Z,151465.06
2018-08-11T05:33:06.112Z,151344.56
2018-08-11T05:35:37.754Z,151180.13
2018-08-11T05:38:07.546Z,151181.39
2018-08-11T05:40:37.815Z,151414.86
2018-08-11T05:43:08.085Z,151524.09
2018-08-11T05:45:38.009Z,151492.69
2018-08-11T05:48:07.840Z,151638.42
2018-08-11T05:50:38.701Z,151552.98
2018-08-11T05:53:08.445Z,151652.22
2018-08-11T05:55:40.151Z,151618.25
2018-08-11T05:58:09.966Z,151171.36
2018-08-11T06:00:41.191Z,151224.03
2018-08-11T06:03:11.400Z,151173.88
2018-08-11T06:05:41.099Z,150980.70
2018-08-11T06:08:10.802Z,151002.03
2018-08-11T06:10:40.663Z,151064.72
2018-08-11T06:13:10.453Z,151475.09
2018-08-11T06:15:40.650Z,151433.72
2018-08-11T06:18:10.919Z,151262.98
2018-08-11T06:20:41.342Z,151150.06
2018-08-11T06:23:13.549Z,151588.16
2018-08-11T06:25:43.944Z,151992.75
2018-08-11T06:28:14.151Z,151671.09
2018-08-11T06:30:44.133Z,151545.47
2018-08-11T06:33:14.189Z,151231.61
2018-08-11T06:35:44.446Z,151443.75
2018-08-11T06:38:14.843Z,151477.64
2018-08-11T06:40:46.330Z,151637.17
2018-08-11T06:43:16.971Z,151088.56
2018-08-11T06:45:47.267Z,151151.31
2018-08-11T06:48:17.622Z,151609.47
2018-08-11T06:50:52.094Z,151693.67
2018-08-11T06:53:23.875Z,151545.47
2018-08-11T06:55:56.405Z,151319.44
2018-08-11T06:58:26.811Z,151112.42
2018-08-11T07:00:56.992Z,151151.31
2018-08-11T07:03:27.334Z,151039.63
2018-08-11T07:05:59.411Z,150902.91
2018-08-11T07:08:31.139Z,151162.59
2018-08-11T07:11:01.453Z,151180.13
2018-08-11T07:13:31.557Z,151382.27
2018-08-11T07:16:01.620Z,151133.72
2018-08-11T07:18:31.332Z,151186.39
2018-08-11T07:21:01.398Z,151211.50
2018-08-11T07:23:31.141Z,151337.03
2018-08-11T07:26:00.932Z,151438.72
2018-08-11T07:28:34.145Z,151377.19
2018-08-11T07:31:05.036Z,151076.00
2018-08-11T07:33:34.904Z,151279.28
2018-08-11T07:36:04.725Z,151438.72
2018-08-11T07:38:34.535Z,151442.50
2018-08-11T07:41:04.750Z,151136.22
2018-08-11T07:43:35.495Z,151025.84
2018-08-11T07:46:07.120Z,150920.48
2018-08-11T07:48:38.692Z,150884.13
2018-08-11T07:51:09.438Z,150771.31
2018-08-11T07:53:39.628Z,150589.59
2018-08-11T07:56:09.985Z,150406.72
2018-08-11T07:58:40.320Z,150419.22
2018-08-11T08:01:11.106Z,150350.38
2018-08-11T08:03:41.583Z,150346.64
2018-08-11T08:06:11.515Z,150331.53
2018-08-11T08:08:41.215Z,150286.47
2018-08-11T08:11:10.966Z,150341.63
2018-08-11T08:13:40.749Z,150285.22
2018-08-11T08:16:10.559Z,150299.03
2018-08-11T08:18:41.090Z,150261.47
2018-08-11T08:21:10.958Z,150218.91
2018-08-11T08:23:40.797Z,150242.72
2018-08-11T08:26:10.744Z,150252.72
2018-08-11T08:28:40.668Z,150225.17
2018-08-11T08:31:11.282Z,150198.91
2018-08-11T08:33:43.600Z,150292.78
2018-08-11T08:36:13.457Z,150332.78
2018-08-11T08:38:43.656Z,150374.14
2018-08-11T08:41:14.109Z,150356.64
2018-08-11T08:43:45.742Z,150359.14
2018-08-11T08:46:16.007Z,150296.53
2018-08-11T08:48:46.366Z,150319.03
2018-08-11T08:51:17.331Z,150316.53
2018-08-11T08:53:48.175Z,150297.78
2018-08-11T08:56:18.709Z,150322.78
2018-08-11T08:58:53.142Z,150225.17
2018-08-11T09:01:23.391Z,150266.47
2018-08-11T09:03:54.537Z,150344.12
2018-08-11T09:06:26.537Z,150435.53
2018-08-11T09:08:56.857Z,150414.22
2018-08-11T09:11:28.070Z,150448.03
2018-08-11T09:13:58.566Z,150514.42
2018-08-11T09:16:28.905Z,150379.16
2018-08-11T09:18:59.157Z,150436.78
2018-08-11T09:21:39.374Z,150421.72
2018-08-11T09:24:18.485Z,150410.47
2018-08-11T09:26:48.144Z,150407.95
2018-08-11T09:29:17.953Z,150419.22
2018-08-11T09:31:47.760Z,150390.45
2018-08-11T09:34:17.439Z,150410.47
2018-08-11T09:36:47.282Z,150421.72
2018-08-11T09:39:17.013Z,150422.97
2018-08-11T09:41:47.083Z,150351.64
2018-08-11T09:44:16.855Z,150290.27
2018-08-11T09:46:46.556Z,150369.14
2018-08-11T09:49:16.423Z,150345.37
2018-08-11T09:51:46.290Z,150406.72
2018-08-11T09:54:19.920Z,150377.91
2018-08-11T09:56:50.739Z,150305.28
2018-08-11T09:59:20.432Z,150329.03
2018-08-11T10:01:55.789Z,150376.66
2018-08-11T10:04:25.554Z,150386.70
2018-08-11T10:06:56.184Z,150396.70
2018-08-11T10:09:26.472Z,150444.28
2018-08-11T10:11:56.246Z,150469.30
2018-08-11T10:14:26.117Z,150387.95
2018-08-11T10:16:55.952Z,150356.64
2018-08-11T10:19:27.507Z,150356.64
2018-08-11T10:21:57.255Z,150352.89
2018-08-11T10:24:26.966Z,150346.64
2018-08-11T10:26:57.316Z,150387.95
2018-08-11T10:29:31.782Z,150327.78
2018-08-11T10:32:01.528Z,150316.53
2018-08-11T10:34:31.953Z,150316.53
2018-08-11T10:37:01.777Z,150366.64
2018-08-11T10:39:31.672Z,150394.20
2018-08-11T10:42:01.617Z,150414.22
2018-08-11T10:44:31.315Z,150433.03
2018-08-11T10:47:01.755Z,150433.03
2018-08-11T10:49:34.711Z,150379.16
2018-08-11T10:52:04.713Z,150304.03
2018-08-11T10:54:34.485Z,150262.72
2018-08-11T10:57:05.786Z,150292.78
2018-08-11T10:59:35.690Z,150341.63
2018-08-11T11:02:08.953Z,150364.14
2018-08-11T11:04:41.210Z,150372.91
2018-08-11T11:07:11.355Z,150379.16
2018-08-11T11:10:00.226Z,150364.14
2018-08-11T11:12:30.119Z,150427.97
2018-08-11T11:14:59.859Z,150396.70
2018-08-11T11:17:30.000Z,150407.95
2018-08-11T11:20:00.114Z,150387.95
2018-08-11T11:22:29.969Z,150421.72
2018-08-11T11:24:59.818Z,150426.72
2018-08-11T11:27:29.459Z,150431.78
2018-08-11T11:30:00.213Z,150429.22
2018-08-11T11:32:29.967Z,150389.20
2018-08-11T11:35:00.195Z,150401.70
2018-08-11T11:37:30.970Z,150404.20
2018-08-11T11:40:00.853Z,150465.55
2018-08-11T11:42:30.510Z,150459.28
2018-08-11T11:45:00.214Z,150484.36
2018-08-11T11:47:29.981Z,150451.78
2018-08-11T11:50:00.724Z,150426.72
2018-08-11T11:52:30.742Z,150441.78
2018-08-11T11:55:00.622Z,150424.22
2018-08-11T11:57:30.332Z,150367.89
2018-08-11T12:00:00.176Z,150382.91
2018-08-11T12:02:31.676Z,150339.13
2018-08-11T12:05:02.397Z,150366.64
2018-08-11T12:07:32.275Z,150382.91
2018-08-11T12:10:02.168Z,150379.16
2018-08-11T12:12:33.769Z,150392.95
2018-08-11T12:15:05.114Z,150438.03
2018-08-11T12:17:34.887Z,150411.72
2018-08-11T12:20:05.733Z,150404.20
2018-08-11T12:22:36.392Z,150364.14
2018-08-11T12:25:06.905Z,150401.70
2018-08-11T12:27:37.017Z,150389.20
2018-08-11T12:30:10.391Z,150396.70
2018-08-11T12:32:41.766Z,150386.70
2018-08-11T12:35:11.580Z,150346.64
2018-08-11T12:37:43.018Z,150251.47
2018-08-11T12:40:12.791Z,150253.97
2018-08-11T12:42:42.575Z,150240.16
2018-08-11T12:45:13.328Z,150252.72
2018-08-11T12:50:19.801Z,150260.22
2018-08-11T12:52:51.855Z,150255.22
2018-08-11T12:55:22.550Z,150236.41
2018-08-11T12:57:52.336Z,150253.97
2018-08-11T13:00:22.820Z,150295.27
2018-08-11T13:02:52.639Z,150275.22
2018-08-11T13:05:22.478Z,150310.28
2018-08-11T13:07:52.289Z,150297.78
2018-08-11T13:10:22.170Z,150290.27
2018-08-11T13:12:51.956Z,150285.22
2018-08-11T13:15:23.204Z,150285.22
2018-08-11T13:17:53.041Z,150251.47
2018-08-11T13:20:22.844Z,150261.47
2018-08-11T13:22:52.869Z,150241.47
2018-08-11T13:25:22.704Z,150227.66
2018-08-11T13:27:52.325Z,150223.91
2018-08-11T13:30:22.043Z,150241.47
2018-08-11T13:32:51.780Z,150252.72
2018-08-11T13:35:23.359Z,150172.56
2018-08-11T13:37:53.317Z,150125.03
2018-08-11T13:40:23.148Z,150141.28
2018-08-11T13:42:52.994Z,150151.31
2018-08-11T13:45:22.902Z,150161.31
2018-08-11T13:47:53.180Z,150163.81
2018-08-11T13:50:25.626Z,150130.03
2018-08-11T13:52:55.576Z,150173.81
2018-08-11T13:55:25.428Z,150185.13
2018-08-11T13:57:55.361Z,150097.48
2018-08-11T14:00:29.268Z,150128.78
2018-08-11T14:02:59.960Z,150115.03
2018-08-11T14:05:31.271Z,150126.28
2018-08-11T14:08:01.305Z,150117.53
2018-08-11T14:10:31.825Z,150136.28
2018-08-11T14:13:03.882Z,150143.78
2018-08-11T14:15:33.755Z,150131.28
2018-08-11T14:18:06.502Z,150153.81
2018-08-11T14:20:38.460Z,150148.81
2018-08-11T14:23:09.375Z,150103.78
2018-08-11T14:25:39.555Z,150126.28
2018-08-11T14:28:09.890Z,150122.53
2018-08-11T14:30:40.117Z,150137.53
2018-08-11T14:33:10.275Z,150135.03
2018-08-11T14:35:41.505Z,150162.56
2018-08-11T14:38:12.499Z,150156.31
2018-08-11T14:40:43.628Z,150107.53
2018-08-11T14:43:13.985Z,150078.73
2018-08-11T14:45:45.396Z,150084.98
2018-08-11T14:48:15.514Z,150094.98
2018-08-11T14:50:45.905Z,150058.75
2018-08-11T14:53:16.228Z,150061.25
2018-08-11T14:55:47.243Z,150047.45
2018-08-11T14:58:17.551Z,150033.70
2018-08-11T15:00:47.724Z,150038.70
2018-08-11T15:03:17.908Z,150033.70
2018-08-11T15:05:49.399Z,150013.72
2018-08-11T15:08:19.603Z,150014.97
2018-08-11T15:10:49.873Z,150022.47
2018-08-11T15:13:19.930Z,150003.63
2018-08-11T15:15:50.458Z,150047.45
2018-08-11T15:18:20.568Z,150036.22
2018-08-11T15:20:51.004Z,150008.67
2018-08-11T15:23:21.435Z,150007.42
2018-08-11T15:25:51.715Z,150007.42
2018-08-11T15:28:22.841Z,149992.38
2018-08-11T15:30:54.171Z,150006.17
2018-08-11T15:33:24.503Z,150001.12
2018-08-11T15:35:54.587Z,150012.47
2018-08-11T15:38:25.208Z,149979.89
2018-08-11T15:40:55.232Z,149962.41
2018-08-11T15:43:25.526Z,149949.86
2018-08-11T15:45:55.573Z,149953.61
2018-08-11T15:48:26.896Z,149914.89
2018-08-11T15:51:02.937Z,149894.84
2018-08-11T15:53:33.382Z,149911.13
2018-08-11T15:56:04.216Z,149906.09
2018-08-11T15:58:42.297Z,149902.34
2018-08-11T16:01:17.465Z,149888.61
2018-08-11T16:03:49.685Z,149849.84
2018-08-11T16:06:21.130Z,149841.05
2018-08-11T16:08:51.968Z,149816.08
2018-08-11T16:11:22.901Z,149813.53
2018-08-11T16:13:52.834Z,149793.55
2018-08-11T16:16:27.092Z,149788.56
2018-08-11T16:19:03.556Z,149799.78
2018-08-11T16:21:33.429Z,149776.06
2018-08-11T16:24:04.220Z,149777.31
2018-08-11T16:26:44.958Z,149786.06
2018-08-11T16:29:15.853Z,149747.31
2018-08-11T16:34:20.613Z,149763.53
2018-08-11T16:36:50.475Z,149722.33
2018-08-11T16:39:20.504Z,149684.83
2018-08-11T16:41:50.363Z,149707.31
2018-08-11T16:44:40.883Z,149698.56
2018-08-11T16:47:17.958Z,149706.06
2018-08-11T16:49:49.244Z,149676.09
2018-08-11T16:52:21.096Z,149679.84
2018-08-11T16:54:50.844Z,149662.27
2018-08-11T16:57:20.678Z,149648.53
2018-08-11T16:59:50.957Z,149651.03
2018-08-11T17:02:20.858Z,149647.30
2018-08-11T17:04:50.742Z,149643.55
2018-08-11T17:07:20.688Z,149633.56
2018-08-11T17:09:50.669Z,149626.08
2018-08-11T17:12:20.911Z,149601.06
2018-08-11T17:14:51.429Z,149589.83
2018-08-11T17:17:21.252Z,149569.81
2018-08-11T17:19:50.992Z,149558.58
2018-08-11T17:22:21.448Z,149528.59
2018-08-11T17:24:51.168Z,149533.62
2018-08-11T17:27:21.022Z,149521.11
2018-08-11T17:29:50.995Z,149523.59
2018-08-11T17:32:20.911Z,149519.86
2018-08-11T17:34:50.714Z,149524.84
2018-08-11T17:37:21.138Z,149508.63
2018-08-11T17:39:50.882Z,149501.14
2018-08-11T17:42:20.671Z,149497.39
2018-08-11T17:44:50.427Z,149498.64
2018-08-11T17:47:20.176Z,149491.11
2018-08-11T17:49:49.981Z,149482.37
2018-08-11T17:52:19.757Z,149474.84
2018-08-11T17:54:49.550Z,149483.63
2018-08-11T17:57:20.105Z,149484.87
2018-08-11T17:59:49.800Z,149469.84
2018-08-11T18:02:21.305Z,149453.63
2018-08-11T18:04:52.244Z,149448.64
2018-08-11T18:07:22.070Z,149466.11
2018-08-11T18:09:52.319Z,149466.11
2018-08-11T18:12:22.765Z,149456.12
2018-08-11T18:14:52.594Z,149437.42
2018-08-11T18:17:22.461Z,149423.66
2018-08-11T18:19:53.399Z,149414.91
2018-08-11T18:22:23.149Z,149414.91
2018-08-11T18:24:53.811Z,149369.97
2018-08-11T18:27:23.780Z,149368.72
2018-08-11T18:29:53.986Z,149382.44
2018-08-11T18:32:23.782Z,149353.75
2018-08-11T18:34:53.574Z,149345.02
2018-08-11T18:37:23.833Z,149313.78
2018-08-11T18:39:53.553Z,149287.50
2018-08-11T18:42:24.152Z,149261.33
2018-08-11T18:44:53.955Z,149243.81
2018-08-11T18:47:23.935Z,149211.41
2018-08-11T18:49:53.799Z,149207.66
2018-08-11T18:52:24.182Z,149216.39
2018-08-11T18:54:54.231Z,149211.41
2018-08-11T18:57:24.872Z,149200.19
2018-08-11T18:59:56.679Z,149186.42
2018-08-11T19:02:26.761Z,149188.91
2018-08-11T19:04:57.996Z,149173.95
2018-08-11T19:07:27.831Z,149154.02
2018-08-11T19:09:58.521Z,149146.48
2018-08-11T19:12:28.413Z,149136.52
2018-08-11T19:14:59.074Z,149136.52
2018-08-11T19:17:28.950Z,149120.31
2018-08-11T19:20:02.174Z,149106.56
2018-08-11T19:22:32.027Z,149102.77
2018-08-11T19:25:04.900Z,149110.30
2018-08-11T19:27:37.679Z,149119.06
2018-08-11T19:30:10.538Z,149107.80
2018-08-11T19:32:41.029Z,149106.56
2018-08-11T19:35:13.464Z,149106.56
2018-08-11T19:37:44.240Z,149109.05
2018-08-11T19:40:14.077Z,149105.31
2018-08-11T19:42:44.542Z,149087.81
2018-08-11T19:45:14.285Z,149091.55
2018-08-11T19:47:44.145Z,149104.06
2018-08-11T19:50:14.234Z,149100.27
2018-08-11T19:52:44.859Z,149101.52
2018-08-11T19:55:17.940Z,149096.53
2018-08-11T19:57:51.080Z,149095.28
2018-08-11T20:00:21.013Z,149104.06
2018-08-11T20:02:52.878Z,149091.55
2018-08-11T20:05:23.569Z,149101.52
2018-08-11T20:07:56.088Z,149106.56
2018-08-11T20:10:28.239Z,149101.52
2018-08-11T20:12:57.975Z,149089.06
2018-08-11T20:15:27.794Z,149085.31
2018-08-11T20:17:57.591Z,149069.12
2018-08-11T20:20:28.063Z,149060.39
2018-08-11T20:22:59.772Z,149062.88
2018-08-11T20:25:32.376Z,149060.39
2018-08-11T20:28:02.969Z,149076.59
2018-08-11T20:30:34.817Z,149079.09
2018-08-11T20:33:07.845Z,149072.84
2018-08-11T20:35:37.665Z,149076.59
2018-08-11T20:38:10.997Z,149087.81
2018-08-11T20:40:40.901Z,149087.81
2018-08-11T20:43:11.942Z,149094.03
2018-08-11T20:45:43.193Z,149076.59
2018-08-11T20:48:15.887Z,149069.12
2018-08-11T20:50:45.671Z,149065.38
2018-08-11T20:53:15.508Z,149061.64
2018-08-11T20:55:45.783Z,149066.62
2018-08-11T20:58:15.765Z,149082.81
2018-08-11T21:00:46.007Z,149077.84
2018-08-11T21:03:15.796Z,149059.16
2018-08-11T21:05:46.785Z,149064.13
2018-08-11T21:08:17.516Z,149051.63
2018-08-11T21:10:47.311Z,149026.69
2018-08-11T21:13:17.036Z,149025.45
2018-08-11T21:15:46.830Z,149035.42
2018-08-11T21:18:16.677Z,149029.19
2018-08-11T21:20:46.476Z,149036.67
2018-08-11T21:23:16.412Z,149011.75
2018-08-11T21:25:46.374Z,149004.22
2018-08-11T21:28:16.601Z,148998.00
2018-08-11T21:30:46.651Z,148988.03
2018-08-11T21:33:16.521Z,148998.00
2018-08-11T21:35:46.387Z,149000.48
2018-08-11T21:38:16.214Z,148981.80
2018-08-11T21:40:47.494Z,148985.53
2018-08-11T21:43:17.469Z,148970.58
2018-08-11T21:45:47.209Z,148993.00
2018-08-11T21:48:17.018Z,148974.31
2018-08-11T21:50:46.715Z,148965.59
2018-08-11T21:53:17.951Z,148916.92
2018-08-11T21:55:47.670Z,148914.42
2018-08-11T21:58:17.451Z,148921.95
2018-08-11T22:00:59.638Z,148916.92
2018-08-11T22:03:31.118Z,148934.41
2018-08-11T22:06:08.661Z,148936.89
2018-08-11T22:08:38.715Z,148924.44
2018-08-11T22:11:08.617Z,148935.66
2018-08-11T22:13:39.508Z,148925.69
2018-08-11T22:16:10.518Z,148893.20
2018-08-11T22:18:40.148Z,148906.91
2018-08-11T22:21:09.968Z,148886.97
2018-08-11T22:23:39.699Z,148869.53
2018-08-11T22:26:09.627Z,148848.31
2018-08-11T22:28:41.622Z,148842.09
2018-08-11T22:31:11.531Z,148828.39
2018-08-11T22:33:42.199Z,148820.92
2018-08-11T22:36:12.657Z,148809.66
2018-08-11T22:38:43.746Z,148802.19
2018-08-11T22:41:13.451Z,148810.91
2018-08-11T22:43:43.185Z,148847.06
2018-08-11T22:46:13.056Z,148859.53
2018-08-11T22:48:43.161Z,148855.78
2018-08-11T22:51:12.964Z,148858.28
2018-08-11T22:53:44.061Z,148867.05
2018-08-11T22:56:14.132Z,148837.11
2018-08-11T22:58:44.842Z,148812.16
2018-08-11T23:01:14.805Z,148804.69
2018-08-11T23:03:53.165Z,148820.92
2018-08-11T23:06:23.308Z,148828.39
2018-08-11T23:08:54.685Z,148823.41
2018-08-11T23:11:24.569Z,148833.38
2018-08-11T23:13:57.230Z,148810.91
2018-08-11T23:16:27.526Z,148779.78
2018-08-11T23:18:58.583Z,148769.77
2018-08-11T23:21:28.296Z,148776.05
2018-08-11T23:23:58.081Z,148797.22
2018-08-11T23:26:27.915Z,148788.50
2018-08-11T23:28:57.629Z,148753.58
2018-08-11T23:31:27.365Z,148742.38
2018-08-11T23:33:57.028Z,148741.12
2018-08-11T23:36:26.765Z,148744.88
2018-08-11T23:38:56.483Z,148762.30
2018-08-11T23:41:26.288Z,148768.53
2018-08-11T23:43:56.185Z,148776.05
2018-08-11T23:46:25.883Z,148768.53
2018-08-11T23:48:55.903Z,148777.28
2018-08-11T23:51:25.834Z,148757.31
2018-08-11T23:53:56.467Z,148747.36
2018-08-11T23:56:26.188Z,148716.13
2018-08-11T23:58:55.931Z,148699.95
